Portada
METAR-TAF:

METAR-TAF

Aeroports :

Leticia, Colòmbia

latitud: 04-10S, longitud: 069-57W, altitud: 84 m

Observació

L'informe es va fer fa 15 minuts, a les 01:00 UTC
Vent calma
Temperatura 26°C
Humitat 94%
Pressió 1012 hPa
Visibilitat 10 km o més
Núvols disperses a una alçada de 1300 ft
Cel ennuvolat a una alçada de 8000 ft

METAR: SKLT 270100Z 00000KT 9999 SCT013 BKN080 26/25 Q1012 RMK A2991

Hora: 20:15 (01:15 UTC)

Pronòstic

L'informe es va fer fa 2 hores i 45 minuts, a les 22:30 UTC
Pronòstic vàlid del 27 a les 00 UTC al 27 a les 24 UTC
Vent kt del Nord
Visibilitat 10 km o més
Núvols disperses a una alçada de 1000 ft
Cel ennuvolat a una alçada de 8000 ft

TAF: SKLT 262230Z 2700/2724 00000KT 9999 SCT010 BKN080 TX31/2719Z TN22/2710Z

Observacions i pronòstics meteorològics de més de 4000 aeroports (METAR i TAF).

Les estacions disponibles són els punts grocs i vermells al mapa.

Posi el ratolí al punt desitjat per veure el nom de l'estació.

Feu clic per veure les observacions i els pronòstics meteorològics.

Per canviar el mapa: feu clic els botons verds amb una creu de color negre per apropar; al botó verd amb un guió per allunyar la imatge; o en les fletxes verdes per a mapes adjacents.


METAR-TAF: